sensor_id;sensor_type;location;lat;lon;timestamp;P1;durP1;ratioP1;P2;durP2;ratioP2
1178;SDS011;578;48.408;10.004;2024-03-25T00:00:41;4.50;;;2.23;;
1178;SDS011;578;48.408;10.004;2024-03-25T00:02:43;2.35;;;2.15;;
1178;SDS011;578;48.408;10.004;2024-03-25T00:04:44;3.55;;;2.20;;
1178;SDS011;578;48.408;10.004;2024-03-25T00:06:47;4.78;;;2.25;;
1178;SDS011;578;48.408;10.004;2024-03-25T00:08:48;2.53;;;2.33;;
1178;SDS011;578;48.408;10.004;2024-03-25T00:13:25;4.38;;;2.35;;
1178;SDS011;578;48.408;10.004;2024-03-25T00:15:42;2.22;;;2.05;;
1178;SDS011;578;48.408;10.004;2024-03-25T00:17:50;2.78;;;2.33;;
1178;SDS011;578;48.408;10.004;2024-03-25T00:20:32;3.25;;;2.50;;
1178;SDS011;578;48.408;10.004;2024-03-25T00:22:52;3.45;;;2.50;;
1178;SDS011;578;48.408;10.004;2024-03-25T00:25:17;2.50;;;2.30;;
1178;SDS011;578;48.408;10.004;2024-03-25T00:27:27;4.97;;;2.50;;
1178;SDS011;578;48.408;10.004;2024-03-25T00:29:37;6.63;;;2.88;;
1178;SDS011;578;48.408;10.004;2024-03-25T00:31:41;5.53;;;2.75;;
1178;SDS011;578;48.408;10.004;2024-03-25T00:33:51;4.07;;;2.47;;
1178;SDS011;578;48.408;10.004;2024-03-25T00:36:21;3.20;;;3.00;;
1178;SDS011;578;48.408;10.004;2024-03-25T00:38:53;4.55;;;2.75;;
1178;SDS011;578;48.408;10.004;2024-03-25T00:41:19;3.05;;;2.55;;
1178;SDS011;578;48.408;10.004;2024-03-25T00:43:29;5.75;;;2.60;;
1178;SDS011;578;48.408;10.004;2024-03-25T00:45:45;5.75;;;3.67;;
1178;SDS011;578;48.408;10.004;2024-03-25T00:48:01;5.63;;;2.50;;
1178;SDS011;578;48.408;10.004;2024-03-25T00:50:12;4.90;;;2.72;;
1178;SDS011;578;48.408;10.004;2024-03-25T00:52:21;3.53;;;2.80;;
1178;SDS011;578;48.408;10.004;2024-03-25T00:54:33;2.72;;;2.50;;
1178;SDS011;578;48.408;10.004;2024-03-25T00:56:45;3.95;;;2.53;;
1178;SDS011;578;48.408;10.004;2024-03-25T00:58:56;5.45;;;2.38;;
1178;SDS011;578;48.408;10.004;2024-03-25T01:01:19;3.88;;;2.25;;
1178;SDS011;578;48.408;10.004;2024-03-25T01:03:30;4.35;;;2.70;;
1178;SDS011;578;48.408;10.004;2024-03-25T01:05:39;3.55;;;3.22;;
1178;SDS011;578;48.408;10.004;2024-03-25T01:07:49;7.60;;;2.97;;
1178;SDS011;578;48.408;10.004;2024-03-25T01:12:29;12.43;;;3.38;;
1178;SDS011;578;48.408;10.004;2024-03-25T01:14:37;3.15;;;2.70;;
1178;SDS011;578;48.408;10.004;2024-03-25T01:16:52;6.20;;;2.67;;
1178;SDS011;578;48.408;10.004;2024-03-25T01:19:06;3.92;;;2.70;;
1178;SDS011;578;48.408;10.004;2024-03-25T01:21:13;4.13;;;3.03;;
1178;SDS011;578;48.408;10.004;2024-03-25T01:23:23;2.50;;;2.30;;
1178;SDS011;578;48.408;10.004;2024-03-25T01:26:01;6.32;;;2.80;;
1178;SDS011;578;48.408;10.004;2024-03-25T01:28:15;4.47;;;2.70;;
1178;SDS011;578;48.408;10.004;2024-03-25T01:30:33;6.45;;;2.70;;
1178;SDS011;578;48.408;10.004;2024-03-25T01:32:50;2.55;;;2.35;;
1178;SDS011;578;48.408;10.004;2024-03-25T01:35:13;4.22;;;3.08;;
1178;SDS011;578;48.408;10.004;2024-03-25T01:37:40;4.97;;;3.88;;
1178;SDS011;578;48.408;10.004;2024-03-25T01:39:55;4.13;;;2.42;;
1178;SDS011;578;48.408;10.004;2024-03-25T01:42:20;3.65;;;2.75;;
1178;SDS011;578;48.408;10.004;2024-03-25T01:44:27;3.75;;;2.70;;
1178;SDS011;578;48.408;10.004;2024-03-25T01:46:39;7.25;;;3.10;;
1178;SDS011;578;48.408;10.004;2024-03-25T01:48:54;3.10;;;2.80;;
1178;SDS011;578;48.408;10.004;2024-03-25T01:51:12;4.50;;;3.42;;
1178;SDS011;578;48.408;10.004;2024-03-25T01:53:24;3.05;;;2.78;;
1178;SDS011;578;48.408;10.004;2024-03-25T01:55:59;4.15;;;2.90;;
1178;SDS011;578;48.408;10.004;2024-03-25T01:58:13;4.55;;;3.60;;
1178;SDS011;578;48.408;10.004;2024-03-25T02:00:28;7.53;;;3.05;;
1178;SDS011;578;48.408;10.004;2024-03-25T02:02:52;3.30;;;3.00;;
1178;SDS011;578;48.408;10.004;2024-03-25T02:05:00;4.22;;;2.80;;
1178;SDS011;578;48.408;10.004;2024-03-25T02:10:01;5.28;;;2.50;;
1178;SDS011;578;48.408;10.004;2024-03-25T02:12:13;8.88;;;3.13;;
1178;SDS011;578;48.408;10.004;2024-03-25T02:14:26;4.55;;;3.10;;
1178;SDS011;578;48.408;10.004;2024-03-25T02:16:38;4.22;;;3.28;;
1178;SDS011;578;48.408;10.004;2024-03-25T02:19:27;3.20;;;2.90;;
1178;SDS011;578;48.408;10.004;2024-03-25T02:21:54;4.32;;;3.15;;
1178;SDS011;578;48.408;10.004;2024-03-25T02:24:32;5.13;;;2.63;;
1178;SDS011;578;48.408;10.004;2024-03-25T02:27:08;5.18;;;3.15;;
1178;SDS011;578;48.408;10.004;2024-03-25T02:32:00;4.35;;;2.80;;
1178;SDS011;578;48.408;10.004;2024-03-25T02:34:39;4.32;;;2.85;;
1178;SDS011;578;48.408;10.004;2024-03-25T02:36:57;4.78;;;3.40;;
1178;SDS011;578;48.408;10.004;2024-03-25T02:39:12;4.60;;;3.13;;
1178;SDS011;578;48.408;10.004;2024-03-25T02:41:45;5.60;;;3.30;;
1178;SDS011;578;48.408;10.004;2024-03-25T02:44:07;5.68;;;3.50;;
1178;SDS011;578;48.408;10.004;2024-03-25T02:46:48;4.20;;;3.75;;
1178;SDS011;578;48.408;10.004;2024-03-25T02:49:06;6.88;;;3.80;;
1178;SDS011;578;48.408;10.004;2024-03-25T02:51:22;7.75;;;3.90;;
1178;SDS011;578;48.408;10.004;2024-03-25T02:53:45;5.85;;;4.20;;
1178;SDS011;578;48.408;10.004;2024-03-25T02:59:04;7.63;;;4.50;;
1178;SDS011;578;48.408;10.004;2024-03-25T03:01:24;8.10;;;3.42;;
1178;SDS011;578;48.408;10.004;2024-03-25T03:03:45;4.60;;;4.03;;
1178;SDS011;578;48.408;10.004;2024-03-25T03:06:02;4.75;;;3.80;;
1178;SDS011;578;48.408;10.004;2024-03-25T03:08:09;4.88;;;3.65;;
1178;SDS011;578;48.408;10.004;2024-03-25T03:10:43;8.00;;;3.75;;
1178;SDS011;578;48.408;10.004;2024-03-25T03:13:03;7.53;;;3.92;;
1178;SDS011;578;48.408;10.004;2024-03-25T03:15:21;4.78;;;3.80;;
1178;SDS011;578;48.408;10.004;2024-03-25T03:17:36;4.90;;;3.55;;
1178;SDS011;578;48.408;10.004;2024-03-25T03:19:57;6.57;;;4.35;;
1178;SDS011;578;48.408;10.004;2024-03-25T03:22:11;7.38;;;4.63;;
1178;SDS011;578;48.408;10.004;2024-03-25T03:24:25;5.47;;;4.25;;
1178;SDS011;578;48.408;10.004;2024-03-25T03:26:51;4.57;;;3.55;;
1178;SDS011;578;48.408;10.004;2024-03-25T03:29:16;7.53;;;4.53;;
1178;SDS011;578;48.408;10.004;2024-03-25T03:31:25;7.53;;;4.30;;
1178;SDS011;578;48.408;10.004;2024-03-25T03:34:09;6.50;;;4.20;;
1178;SDS011;578;48.408;10.004;2024-03-25T03:36:22;5.97;;;3.70;;
1178;SDS011;578;48.408;10.004;2024-03-25T03:38:41;6.10;;;4.00;;
1178;SDS011;578;48.408;10.004;2024-03-25T03:40:58;6.88;;;4.60;;
1178;SDS011;578;48.408;10.004;2024-03-25T03:43:06;5.75;;;4.30;;
1178;SDS011;578;48.408;10.004;2024-03-25T03:45:36;5.30;;;3.90;;
1178;SDS011;578;48.408;10.004;2024-03-25T03:48:14;23.00;;;21.08;;
1178;SDS011;578;48.408;10.004;2024-03-25T03:50:36;8.60;;;4.95;;
1178;SDS011;578;48.408;10.004;2024-03-25T03:52:54;10.30;;;5.03;;
1178;SDS011;578;48.408;10.004;2024-03-25T03:55:27;6.20;;;5.13;;
1178;SDS011;578;48.408;10.004;2024-03-25T03:57:48;10.50;;;5.68;;
1178;SDS011;578;48.408;10.004;2024-03-25T04:00:09;9.40;;;7.82;;
1178;SDS011;578;48.408;10.004;2024-03-25T04:02:29;8.43;;;7.63;;
1178;SDS011;578;48.408;10.004;2024-03-25T04:04:39;9.63;;;7.68;;
1178;SDS011;578;48.408;10.004;2024-03-25T04:07:26;8.15;;;7.30;;
1178;SDS011;578;48.408;10.004;2024-03-25T04:12:53;11.85;;;10.10;;
1178;SDS011;578;48.408;10.004;2024-03-25T04:15:32;12.98;;;9.93;;
1178;SDS011;578;48.408;10.004;2024-03-25T04:17:55;12.95;;;11.60;;
1178;SDS011;578;48.408;10.004;2024-03-25T04:23:28;16.38;;;12.35;;
1178;SDS011;578;48.408;10.004;2024-03-25T04:26:00;13.18;;;11.77;;
1178;SDS011;578;48.408;10.004;2024-03-25T04:28:10;13.05;;;11.65;;
1178;SDS011;578;48.408;10.004;2024-03-25T04:30:55;15.38;;;13.10;;
1178;SDS011;578;48.408;10.004;2024-03-25T04:33:22;21.95;;;13.18;;
1178;SDS011;578;48.408;10.004;2024-03-25T04:35:56;12.15;;;10.82;;
1178;SDS011;578;48.408;10.004;2024-03-25T04:38:02;16.80;;;12.60;;
1178;SDS011;578;48.408;10.004;2024-03-25T04:40:16;14.90;;;12.90;;
1178;SDS011;578;48.408;10.004;2024-03-25T04:42:36;16.77;;;13.18;;
1178;SDS011;578;48.408;10.004;2024-03-25T04:44:46;14.50;;;12.10;;
1178;SDS011;578;48.408;10.004;2024-03-25T04:49:25;15.65;;;13.10;;
1178;SDS011;578;48.408;10.004;2024-03-25T04:51:46;15.82;;;13.80;;
1178;SDS011;578;48.408;10.004;2024-03-25T04:53:51;15.50;;;13.90;;
1178;SDS011;578;48.408;10.004;2024-03-25T04:55:56;16.98;;;14.02;;
1178;SDS011;578;48.408;10.004;2024-03-25T04:57:58;17.17;;;13.90;;
1178;SDS011;578;48.408;10.004;2024-03-25T05:00:26;18.83;;;14.35;;
1178;SDS011;578;48.408;10.004;2024-03-25T05:02:37;18.13;;;15.30;;
1178;SDS011;578;48.408;10.004;2024-03-25T05:04:48;16.38;;;14.65;;
1178;SDS011;578;48.408;10.004;2024-03-25T05:06:59;19.38;;;15.68;;
1178;SDS011;578;48.408;10.004;2024-03-25T05:09:05;18.35;;;15.75;;
1178;SDS011;578;48.408;10.004;2024-03-25T05:11:31;17.17;;;14.68;;
1178;SDS011;578;48.408;10.004;2024-03-25T05:13:38;20.85;;;15.15;;
1178;SDS011;578;48.408;10.004;2024-03-25T05:15:49;17.88;;;14.98;;
1178;SDS011;578;48.408;10.004;2024-03-25T05:17:55;16.98;;;14.52;;
1178;SDS011;578;48.408;10.004;2024-03-25T05:20:00;16.23;;;14.32;;
1178;SDS011;578;48.408;10.004;2024-03-25T05:22:15;16.50;;;14.80;;
1178;SDS011;578;48.408;10.004;2024-03-25T05:24:21;16.55;;;14.52;;
1178;SDS011;578;48.408;10.004;2024-03-25T05:26:28;11.77;;;10.57;;
1178;SDS011;578;48.408;10.004;2024-03-25T05:28:41;14.20;;;12.70;;
1178;SDS011;578;48.408;10.004;2024-03-25T05:30:52;15.27;;;11.43;;
1178;SDS011;578;48.408;10.004;2024-03-25T05:33:08;12.75;;;11.45;;
1178;SDS011;578;48.408;10.004;2024-03-25T05:35:25;11.98;;;10.77;;
1178;SDS011;578;48.408;10.004;2024-03-25T05:40:04;12.82;;;11.52;;
1178;SDS011;578;48.408;10.004;2024-03-25T05:42:11;12.88;;;11.00;;
1178;SDS011;578;48.408;10.004;2024-03-25T05:44:16;14.25;;;10.85;;
1178;SDS011;578;48.408;10.004;2024-03-25T05:46:30;11.95;;;10.65;;
1178;SDS011;578;48.408;10.004;2024-03-25T05:48:42;14.05;;;10.60;;
1178;SDS011;578;48.408;10.004;2024-03-25T05:50:56;12.10;;;10.90;;
1178;SDS011;578;48.408;10.004;2024-03-25T05:53:07;14.63;;;11.32;;
1178;SDS011;578;48.408;10.004;2024-03-25T05:55:09;14.10;;;12.70;;
1178;SDS011;578;48.408;10.004;2024-03-25T05:57:16;13.02;;;11.63;;
1178;SDS011;578;48.408;10.004;2024-03-25T05:59:20;16.27;;;13.23;;
1178;SDS011;578;48.408;10.004;2024-03-25T06:01:25;14.93;;;12.35;;
1178;SDS011;578;48.408;10.004;2024-03-25T06:03:26;16.98;;;13.40;;
1178;SDS011;578;48.408;10.004;2024-03-25T06:05:31;14.93;;;12.50;;
1178;SDS011;578;48.408;10.004;2024-03-25T06:07:39;16.13;;;12.85;;
1178;SDS011;578;48.408;10.004;2024-03-25T06:09:53;15.48;;;11.88;;
1178;SDS011;578;48.408;10.004;2024-03-25T06:12:08;15.23;;;12.60;;
1178;SDS011;578;48.408;10.004;2024-03-25T06:16:39;20.45;;;16.17;;
1178;SDS011;578;48.408;10.004;2024-03-25T06:18:58;20.10;;;15.38;;
1178;SDS011;578;48.408;10.004;2024-03-25T06:21:17;20.05;;;15.88;;
1178;SDS011;578;48.408;10.004;2024-03-25T06:23:29;16.55;;;14.60;;
1178;SDS011;578;48.408;10.004;2024-03-25T06:25:45;18.40;;;13.82;;
1178;SDS011;578;48.408;10.004;2024-03-25T06:27:58;16.48;;;13.40;;
1178;SDS011;578;48.408;10.004;2024-03-25T06:30:05;16.67;;;14.80;;
1178;SDS011;578;48.408;10.004;2024-03-25T06:32:28;16.35;;;14.65;;
1178;SDS011;578;48.408;10.004;2024-03-25T06:34:48;15.77;;;14.07;;
1178;SDS011;578;48.408;10.004;2024-03-25T06:36:52;15.20;;;13.60;;
1178;SDS011;578;48.408;10.004;2024-03-25T06:39:14;14.52;;;12.63;;
1178;SDS011;578;48.408;10.004;2024-03-25T06:41:25;13.88;;;12.50;;
1178;SDS011;578;48.408;10.004;2024-03-25T06:43:42;15.73;;;12.70;;
1178;SDS011;578;48.408;10.004;2024-03-25T06:45:47;17.02;;;13.77;;
1178;SDS011;578;48.408;10.004;2024-03-25T06:47:49;14.48;;;12.98;;
1178;SDS011;578;48.408;10.004;2024-03-25T06:49:53;15.18;;;13.60;;
1178;SDS011;578;48.408;10.004;2024-03-25T06:51:56;15.00;;;13.40;;
1178;SDS011;578;48.408;10.004;2024-03-25T06:54:02;16.00;;;14.38;;
1178;SDS011;578;48.408;10.004;2024-03-25T06:56:04;16.48;;;14.15;;
1178;SDS011;578;48.408;10.004;2024-03-25T06:58:13;17.52;;;15.65;;
1178;SDS011;578;48.408;10.004;2024-03-25T07:00:20;19.92;;;17.80;;
1178;SDS011;578;48.408;10.004;2024-03-25T07:02:25;17.02;;;15.27;;
1178;SDS011;578;48.408;10.004;2024-03-25T07:04:33;17.85;;;16.05;;
1178;SDS011;578;48.408;10.004;2024-03-25T07:06:39;18.60;;;16.60;;
1178;SDS011;578;48.408;10.004;2024-03-25T07:08:47;21.40;;;16.20;;
1178;SDS011;578;48.408;10.004;2024-03-25T07:10:54;18.27;;;16.30;;
1178;SDS011;578;48.408;10.004;2024-03-25T07:12:55;19.77;;;17.63;;
1178;SDS011;578;48.408;10.004;2024-03-25T07:14:58;21.00;;;16.30;;
1178;SDS011;578;48.408;10.004;2024-03-25T07:16:59;21.20;;;16.75;;
1178;SDS011;578;48.408;10.004;2024-03-25T07:18:59;19.03;;;16.43;;
1178;SDS011;578;48.408;10.004;2024-03-25T07:21:00;20.40;;;16.80;;
1178;SDS011;578;48.408;10.004;2024-03-25T07:23:01;17.97;;;14.93;;
1178;SDS011;578;48.408;10.004;2024-03-25T07:25:04;15.43;;;13.93;;
1178;SDS011;578;48.408;10.004;2024-03-25T07:27:05;13.90;;;12.45;;
1178;SDS011;578;48.408;10.004;2024-03-25T07:29:06;13.40;;;12.05;;
1178;SDS011;578;48.408;10.004;2024-03-25T07:31:08;17.25;;;13.57;;
1178;SDS011;578;48.408;10.004;2024-03-25T07:33:09;16.05;;;13.13;;
1178;SDS011;578;48.408;10.004;2024-03-25T07:35:10;17.23;;;12.80;;
1178;SDS011;578;48.408;10.004;2024-03-25T07:37:11;13.50;;;12.17;;
1178;SDS011;578;48.408;10.004;2024-03-25T07:39:12;13.07;;;10.70;;
1178;SDS011;578;48.408;10.004;2024-03-25T07:41:13;13.83;;;12.40;;
1178;SDS011;578;48.408;10.004;2024-03-25T07:43:14;15.80;;;12.50;;
1178;SDS011;578;48.408;10.004;2024-03-25T07:45:14;12.50;;;11.00;;
1178;SDS011;578;48.408;10.004;2024-03-25T07:47:17;17.25;;;12.18;;
1178;SDS011;578;48.408;10.004;2024-03-25T07:49:18;13.82;;;11.35;;
1178;SDS011;578;48.408;10.004;2024-03-25T07:51:19;12.93;;;10.00;;
1178;SDS011;578;48.408;10.004;2024-03-25T07:53:20;11.47;;;9.33;;
1178;SDS011;578;48.408;10.004;2024-03-25T07:55:21;10.80;;;9.80;;
1178;SDS011;578;48.408;10.004;2024-03-25T07:57:22;10.37;;;9.40;;
1178;SDS011;578;48.408;10.004;2024-03-25T07:59:23;10.43;;;9.33;;
1178;SDS011;578;48.408;10.004;2024-03-25T08:01:24;11.05;;;9.02;;
1178;SDS011;578;48.408;10.004;2024-03-25T08:03:26;9.07;;;8.17;;
1178;SDS011;578;48.408;10.004;2024-03-25T08:05:27;10.80;;;8.93;;
1178;SDS011;578;48.408;10.004;2024-03-25T08:07:30;10.60;;;9.43;;
1178;SDS011;578;48.408;10.004;2024-03-25T08:09:31;13.67;;;12.17;;
1178;SDS011;578;48.408;10.004;2024-03-25T08:11:32;10.13;;;9.23;;
1178;SDS011;578;48.408;10.004;2024-03-25T08:13:33;14.27;;;11.38;;
1178;SDS011;578;48.408;10.004;2024-03-25T08:15:34;9.87;;;8.87;;
1178;SDS011;578;48.408;10.004;2024-03-25T08:17:34;7.73;;;7.00;;
1178;SDS011;578;48.408;10.004;2024-03-25T08:19:37;7.63;;;6.97;;
1178;SDS011;578;48.408;10.004;2024-03-25T08:21:37;7.75;;;6.65;;
1178;SDS011;578;48.408;10.004;2024-03-25T08:23:38;10.53;;;9.50;;
1178;SDS011;578;48.408;10.004;2024-03-25T08:25:39;10.88;;;9.80;;
1178;SDS011;578;48.408;10.004;2024-03-25T08:27:40;12.17;;;11.10;;
1178;SDS011;578;48.408;10.004;2024-03-25T08:29:41;11.47;;;10.47;;
1178;SDS011;578;48.408;10.004;2024-03-25T08:31:42;12.47;;;11.23;;
1178;SDS011;578;48.408;10.004;2024-03-25T08:33:43;8.93;;;7.40;;
1178;SDS011;578;48.408;10.004;2024-03-25T08:35:45;8.63;;;6.57;;
1178;SDS011;578;48.408;10.004;2024-03-25T08:37:46;7.07;;;6.47;;
1178;SDS011;578;48.408;10.004;2024-03-25T08:39:47;9.27;;;7.93;;
1178;SDS011;578;48.408;10.004;2024-03-25T08:41:48;10.50;;;8.90;;
1178;SDS011;578;48.408;10.004;2024-03-25T08:43:49;9.37;;;8.57;;
1178;SDS011;578;48.408;10.004;2024-03-25T08:45:49;7.40;;;6.40;;
1178;SDS011;578;48.408;10.004;2024-03-25T08:47:50;6.97;;;6.27;;
1178;SDS011;578;48.408;10.004;2024-03-25T08:49:51;7.77;;;5.40;;
1178;SDS011;578;48.408;10.004;2024-03-25T08:51:53;8.30;;;7.30;;
1178;SDS011;578;48.408;10.004;2024-03-25T08:53:54;11.03;;;9.90;;
1178;SDS011;578;48.408;10.004;2024-03-25T08:55:55;12.37;;;9.23;;
1178;SDS011;578;48.408;10.004;2024-03-25T08:57:56;8.87;;;8.07;;
1178;SDS011;578;48.408;10.004;2024-03-25T08:59:58;8.15;;;7.45;;
1178;SDS011;578;48.408;10.004;2024-03-25T09:01:59;8.83;;;7.27;;
1178;SDS011;578;48.408;10.004;2024-03-25T09:04:00;7.17;;;6.57;;
1178;SDS011;578;48.408;10.004;2024-03-25T09:06:01;7.57;;;6.90;;
1178;SDS011;578;48.408;10.004;2024-03-25T09:08:03;8.97;;;6.80;;
1178;SDS011;578;48.408;10.004;2024-03-25T09:10:05;6.25;;;5.60;;
1178;SDS011;578;48.408;10.004;2024-03-25T09:12:24;5.27;;;4.63;;
1178;SDS011;578;48.408;10.004;2024-03-25T09:14:25;6.33;;;4.57;;
1178;SDS011;578;48.408;10.004;2024-03-25T09:16:26;7.73;;;4.70;;
1178;SDS011;578;48.408;10.004;2024-03-25T09:18:27;6.20;;;4.30;;
1178;SDS011;578;48.408;10.004;2024-03-25T09:20:28;6.27;;;4.90;;
1178;SDS011;578;48.408;10.004;2024-03-25T09:22:29;5.03;;;4.50;;
1178;SDS011;578;48.408;10.004;2024-03-25T09:24:31;6.03;;;5.00;;
1178;SDS011;578;48.408;10.004;2024-03-25T09:26:32;6.55;;;5.35;;
1178;SDS011;578;48.408;10.004;2024-03-25T09:28:33;10.57;;;5.23;;
1178;SDS011;578;48.408;10.004;2024-03-25T09:30:34;8.30;;;5.43;;
1178;SDS011;578;48.408;10.004;2024-03-25T09:32:35;10.43;;;5.47;;
1178;SDS011;578;48.408;10.004;2024-03-25T09:34:36;6.20;;;5.70;;
1178;SDS011;578;48.408;10.004;2024-03-25T09:36:37;6.60;;;4.83;;
1178;SDS011;578;48.408;10.004;2024-03-25T09:38:39;6.10;;;5.20;;
1178;SDS011;578;48.408;10.004;2024-03-25T09:40:41;5.47;;;4.93;;
1178;SDS011;578;48.408;10.004;2024-03-25T09:42:44;5.33;;;4.90;;
1178;SDS011;578;48.408;10.004;2024-03-25T09:44:48;6.90;;;4.47;;
1178;SDS011;578;48.408;10.004;2024-03-25T09:46:49;8.33;;;5.23;;
1178;SDS011;578;48.408;10.004;2024-03-25T09:48:51;6.60;;;5.07;;
1178;SDS011;578;48.408;10.004;2024-03-25T09:50:53;4.93;;;4.33;;
1178;SDS011;578;48.408;10.004;2024-03-25T09:52:54;9.30;;;4.77;;
1178;SDS011;578;48.408;10.004;2024-03-25T09:54:55;7.00;;;4.73;;
1178;SDS011;578;48.408;10.004;2024-03-25T09:56:57;4.57;;;4.13;;
1178;SDS011;578;48.408;10.004;2024-03-25T09:58:59;6.70;;;5.17;;
1178;SDS011;578;48.408;10.004;2024-03-25T10:01:01;6.60;;;6.00;;
1178;SDS011;578;48.408;10.004;2024-03-25T10:03:02;5.00;;;4.60;;
1178;SDS011;578;48.408;10.004;2024-03-25T10:05:03;5.60;;;4.13;;
1178;SDS011;578;48.408;10.004;2024-03-25T10:07:06;5.43;;;4.83;;
1178;SDS011;578;48.408;10.004;2024-03-25T10:09:07;5.13;;;4.63;;
1178;SDS011;578;48.408;10.004;2024-03-25T10:11:08;7.40;;;4.77;;
1178;SDS011;578;48.408;10.004;2024-03-25T10:13:10;4.93;;;4.40;;
1178;SDS011;578;48.408;10.004;2024-03-25T10:15:14;5.43;;;4.27;;
1178;SDS011;578;48.408;10.004;2024-03-25T10:17:16;5.50;;;3.57;;
1178;SDS011;578;48.408;10.004;2024-03-25T10:19:17;5.10;;;4.00;;
1178;SDS011;578;48.408;10.004;2024-03-25T10:21:19;8.60;;;3.40;;
1178;SDS011;578;48.408;10.004;2024-03-25T10:23:20;2.97;;;2.77;;
1178;SDS011;578;48.408;10.004;2024-03-25T10:25:22;3.67;;;3.27;;
1178;SDS011;578;48.408;10.004;2024-03-25T10:27:23;4.33;;;3.80;;
1178;SDS011;578;48.408;10.004;2024-03-25T10:29:25;7.27;;;3.50;;
1178;SDS011;578;48.408;10.004;2024-03-25T10:31:26;7.50;;;3.67;;
1178;SDS011;578;48.408;10.004;2024-03-25T10:33:27;3.97;;;3.57;;
1178;SDS011;578;48.408;10.004;2024-03-25T10:35:29;4.10;;;1.90;;
1178;SDS011;578;48.408;10.004;2024-03-25T10:37:30;3.53;;;1.47;;
1178;SDS011;578;48.408;10.004;2024-03-25T10:39:32;3.23;;;1.80;;
1178;SDS011;578;48.408;10.004;2024-03-25T10:41:34;5.77;;;2.37;;
1178;SDS011;578;48.408;10.004;2024-03-25T10:43:35;4.27;;;2.50;;
1178;SDS011;578;48.408;10.004;2024-03-25T10:45:40;6.13;;;2.60;;
1178;SDS011;578;48.408;10.004;2024-03-25T10:47:42;2.87;;;2.30;;
1178;SDS011;578;48.408;10.004;2024-03-25T10:49:49;3.53;;;2.40;;
1178;SDS011;578;48.408;10.004;2024-03-25T10:51:52;2.83;;;2.63;;
1178;SDS011;578;48.408;10.004;2024-03-25T10:53:54;2.70;;;2.50;;
1178;SDS011;578;48.408;10.004;2024-03-25T10:55:57;4.73;;;2.53;;
1178;SDS011;578;48.408;10.004;2024-03-25T10:57:59;3.57;;;2.40;;
1178;SDS011;578;48.408;10.004;2024-03-25T11:00:02;3.53;;;2.27;;
1178;SDS011;578;48.408;10.004;2024-03-25T11:02:05;2.00;;;1.80;;
1178;SDS011;578;48.408;10.004;2024-03-25T11:04:06;2.50;;;1.70;;
1178;SDS011;578;48.408;10.004;2024-03-25T11:06:07;3.93;;;2.47;;
1178;SDS011;578;48.408;10.004;2024-03-25T11:08:11;3.20;;;1.90;;
1178;SDS011;578;48.408;10.004;2024-03-25T11:10:12;2.70;;;2.00;;
1178;SDS011;578;48.408;10.004;2024-03-25T11:12:13;1.60;;;1.50;;
1178;SDS011;578;48.408;10.004;2024-03-25T11:14:15;2.80;;;2.03;;
1178;SDS011;578;48.408;10.004;2024-03-25T11:16:26;2.73;;;2.20;;
1178;SDS011;578;48.408;10.004;2024-03-25T11:18:30;4.10;;;2.03;;
1178;SDS011;578;48.408;10.004;2024-03-25T11:20:33;2.40;;;1.93;;
1178;SDS011;578;48.408;10.004;2024-03-25T11:22:34;3.07;;;1.90;;
1178;SDS011;578;48.408;10.004;2024-03-25T11:24:35;4.40;;;2.00;;
1178;SDS011;578;48.408;10.004;2024-03-25T11:26:40;2.90;;;2.17;;
1178;SDS011;578;48.408;10.004;2024-03-25T11:28:42;2.90;;;1.73;;
1178;SDS011;578;48.408;10.004;2024-03-25T11:30:43;3.20;;;1.80;;
1178;SDS011;578;48.408;10.004;2024-03-25T11:32:44;1.83;;;1.67;;
1178;SDS011;578;48.408;10.004;2024-03-25T11:34:52;3.20;;;1.77;;
1178;SDS011;578;48.408;10.004;2024-03-25T11:36:53;1.70;;;1.60;;
1178;SDS011;578;48.408;10.004;2024-03-25T11:38:57;2.00;;;1.80;;
1178;SDS011;578;48.408;10.004;2024-03-25T11:40:59;4.17;;;1.83;;
1178;SDS011;578;48.408;10.004;2024-03-25T11:43:00;1.83;;;1.63;;
1178;SDS011;578;48.408;10.004;2024-03-25T11:45:01;2.40;;;2.20;;
1178;SDS011;578;48.408;10.004;2024-03-25T11:47:03;1.73;;;1.63;;
1178;SDS011;578;48.408;10.004;2024-03-25T11:49:05;1.90;;;1.80;;
1178;SDS011;578;48.408;10.004;2024-03-25T11:51:10;4.53;;;2.30;;
1178;SDS011;578;48.408;10.004;2024-03-25T11:53:12;1.80;;;1.70;;
1178;SDS011;578;48.408;10.004;2024-03-25T11:55:16;3.67;;;2.23;;
1178;SDS011;578;48.408;10.004;2024-03-25T11:57:17;1.70;;;1.60;;
1178;SDS011;578;48.408;10.004;2024-03-25T11:59:18;3.80;;;1.80;;
1178;SDS011;578;48.408;10.004;2024-03-25T12:01:20;1.67;;;1.57;;
1178;SDS011;578;48.408;10.004;2024-03-25T12:03:21;1.93;;;1.50;;
1178;SDS011;578;48.408;10.004;2024-03-25T12:05:22;1.63;;;1.40;;
1178;SDS011;578;48.408;10.004;2024-03-25T12:07:24;2.50;;;1.90;;
1178;SDS011;578;48.408;10.004;2024-03-25T12:09:25;2.20;;;1.90;;
1178;SDS011;578;48.408;10.004;2024-03-25T12:11:44;3.83;;;2.10;;
1178;SDS011;578;48.408;10.004;2024-03-25T12:13:46;2.67;;;1.53;;
1178;SDS011;578;48.408;10.004;2024-03-25T12:15:47;4.57;;;1.97;;
1178;SDS011;578;48.408;10.004;2024-03-25T12:17:48;2.77;;;1.70;;
1178;SDS011;578;48.408;10.004;2024-03-25T12:20:04;1.73;;;1.63;;
1178;SDS011;578;48.408;10.004;2024-03-25T12:22:06;3.23;;;1.70;;
1178;SDS011;578;48.408;10.004;2024-03-25T12:24:08;1.80;;;1.53;;
1178;SDS011;578;48.408;10.004;2024-03-25T12:26:09;1.63;;;1.53;;
1178;SDS011;578;48.408;10.004;2024-03-25T12:28:11;3.90;;;1.63;;
1178;SDS011;578;48.408;10.004;2024-03-25T12:30:13;3.23;;;1.50;;
1178;SDS011;578;48.408;10.004;2024-03-25T12:32:14;2.37;;;1.40;;
1178;SDS011;578;48.408;10.004;2024-03-25T12:34:15;3.47;;;1.60;;
1178;SDS011;578;48.408;10.004;2024-03-25T12:36:17;1.60;;;1.50;;
1178;SDS011;578;48.408;10.004;2024-03-25T12:38:23;6.47;;;1.97;;
1178;SDS011;578;48.408;10.004;2024-03-25T12:40:27;2.93;;;1.33;;
1178;SDS011;578;48.408;10.004;2024-03-25T12:42:28;1.60;;;1.33;;
1178;SDS011;578;48.408;10.004;2024-03-25T12:44:30;1.60;;;1.50;;
1178;SDS011;578;48.408;10.004;2024-03-25T12:46:32;1.70;;;1.60;;
1178;SDS011;578;48.408;10.004;2024-03-25T12:48:33;1.73;;;1.40;;
1178;SDS011;578;48.408;10.004;2024-03-25T12:50:34;1.60;;;1.50;;
1178;SDS011;578;48.408;10.004;2024-03-25T12:52:35;1.70;;;1.43;;
1178;SDS011;578;48.408;10.004;2024-03-25T12:54:36;3.43;;;2.13;;
1178;SDS011;578;48.408;10.004;2024-03-25T12:56:39;6.00;;;2.23;;
1178;SDS011;578;48.408;10.004;2024-03-25T12:58:40;3.90;;;2.07;;
1178;SDS011;578;48.408;10.004;2024-03-25T13:00:41;2.80;;;2.23;;
1178;SDS011;578;48.408;10.004;2024-03-25T13:02:42;2.50;;;2.03;;
1178;SDS011;578;48.408;10.004;2024-03-25T13:04:44;4.33;;;2.10;;
1178;SDS011;578;48.408;10.004;2024-03-25T13:06:45;3.17;;;1.93;;
1178;SDS011;578;48.408;10.004;2024-03-25T13:08:46;1.90;;;1.67;;
1178;SDS011;578;48.408;10.004;2024-03-25T13:10:47;3.00;;;2.53;;
1178;SDS011;578;48.408;10.004;2024-03-25T13:12:50;3.17;;;2.63;;
1178;SDS011;578;48.408;10.004;2024-03-25T13:14:51;2.77;;;2.47;;
1178;SDS011;578;48.408;10.004;2024-03-25T13:16:52;5.27;;;2.90;;
1178;SDS011;578;48.408;10.004;2024-03-25T13:18:53;2.70;;;1.87;;
1178;SDS011;578;48.408;10.004;2024-03-25T13:20:53;2.87;;;2.03;;
1178;SDS011;578;48.408;10.004;2024-03-25T13:22:54;4.13;;;2.20;;
1178;SDS011;578;48.408;10.004;2024-03-25T13:24:59;2.73;;;2.53;;
1178;SDS011;578;48.408;10.004;2024-03-25T13:27:00;2.30;;;2.10;;
1178;SDS011;578;48.408;10.004;2024-03-25T13:29:02;3.30;;;2.20;;
1178;SDS011;578;48.408;10.004;2024-03-25T13:31:03;2.87;;;2.53;;
1178;SDS011;578;48.408;10.004;2024-03-25T13:33:04;4.27;;;2.20;;
1178;SDS011;578;48.408;10.004;2024-03-25T13:35:05;2.30;;;2.10;;
1178;SDS011;578;48.408;10.004;2024-03-25T13:37:06;2.47;;;2.27;;
1178;SDS011;578;48.408;10.004;2024-03-25T13:39:07;2.30;;;2.03;;